Time;durP1;ratioP1;P1;durP2;ratioP2;P2;SDS_P1;SDS_P2;PMS_P1;PMS_P2;Temp;Humidity;BMP_temperature;BMP_pressure;BME280_temperature;BME280_humidity;BME280_pressure;Samples;Min_cycle;Max_cycle;Signal;HPM_P1;HPM_P2
2022/09/19 00:02:17;;;;;;;6.88;5.28;;;;;;;;;;5074746;28;20031;-72
2022/09/19 00:04:43;;;;;;;6.78;4.88;;;;;;;;;;5072722;28;20586;-72
2022/09/19 00:07:08;;;;;;;6.18;4.60;;;;;;;;;;5073031;28;20081;-72
2022/09/19 00:09:34;;;;;;;10.70;4.80;;;;;;;;;;5055028;28;20020;-72
2022/09/19 00:11:59;;;;;;;4.75;3.67;;;;;;;;;;5055093;28;20703;-73
2022/09/19 00:14:27;;;;;;;5.05;3.90;;;;;;;;;;5074345;28;20346;-72
2022/09/19 00:16:54;;;;;;;3.88;3.50;;;;;;;;;;5074171;28;20025;-73
2022/09/19 00:19:20;;;;;;;4.07;3.50;;;;;;;;;;5074344;28;20021;-73
2022/09/19 00:21:46;;;;;;;3.75;3.10;;;;;;;;;;5074384;28;20024;-73
2022/09/19 00:26:58;;;;;;;3.15;2.60;;;;;;;;;;5073949;28;20037;-71
2022/09/19 00:29:24;;;;;;;2.58;2.38;;;;;;;;;;5056169;28;20031;-71
2022/09/19 00:31:50;;;;;;;3.05;1.98;;;;;;;;;;5055692;28;20028;-71
2022/09/19 00:34:17;;;;;;;2.22;2.10;;;;;;;;;;5055889;28;20048;-69
2022/09/19 00:36:43;;;;;;;2.13;2.03;;;;;;;;;;5074266;28;20111;-69
2022/09/19 00:39:10;;;;;;;4.63;1.95;;;;;;;;;;5054884;28;20115;-72
2022/09/19 00:41:36;;;;;;;2.95;2.10;;;;;;;;;;5072213;28;20024;-72
2022/09/19 00:44:20;;;;;;;1.77;1.48;;;;;;;;;;5073399;28;20016;-72
2022/09/19 00:46:46;;;;;;;1.55;1.45;;;;;;;;;;5073197;28;20029;-72
2022/09/19 00:49:19;;;;;;;1.95;1.55;;;;;;;;;;5071879;28;20536;-73
2022/09/19 00:51:49;;;;;;;2.03;1.80;;;;;;;;;;5072632;28;20040;-72
2022/09/19 00:54:19;;;;;;;1.88;1.73;;;;;;;;;;5073407;28;20032;-72
2022/09/19 00:56:47;;;;;;;1.42;1.30;;;;;;;;;;5073430;28;20115;-73
2022/09/19 00:59:13;;;;;;;1.50;1.40;;;;;;;;;;5054973;28;20483;-73
2022/09/19 01:01:39;;;;;;;1.40;1.30;;;;;;;;;;5070880;28;20119;-72
2022/09/19 01:04:15;;;;;;;1.50;1.40;;;;;;;;;;5074212;28;20059;-71
2022/09/19 01:06:48;;;;;;;1.40;1.30;;;;;;;;;;5073944;28;20364;-71
2022/09/19 01:09:28;;;;;;;1.50;1.40;;;;;;;;;;5072575;28;20037;-71
2022/09/19 01:11:57;;;;;;;2.03;1.27;;;;;;;;;;5073901;28;20020;-68
2022/09/19 01:14:26;;;;;;;1.77;1.10;;;;;;;;;;5055187;28;20100;-68
2022/09/19 01:16:58;;;;;;;1.35;1.25;;;;;;;;;;5055926;28;20028;-68
2022/09/19 01:19:24;;;;;;;1.35;1.25;;;;;;;;;;5055304;28;20029;-68
2022/09/19 01:21:52;;;;;;;1.88;1.33;;;;;;;;;;5073918;28;20103;-68
2022/09/19 01:24:37;;;;;;;1.13;1.00;;;;;;;;;;5055160;28;20021;-67
2022/09/19 01:27:21;;;;;;;1.00;1.00;;;;;;;;;;5055589;28;20380;-67
2022/09/19 01:29:56;;;;;;;0.90;0.85;;;;;;;;;;5072514;28;20035;-67
2022/09/19 01:32:23;;;;;;;1.20;1.10;;;;;;;;;;5055845;28;20035;-70
2022/09/19 01:34:53;;;;;;;1.27;1.17;;;;;;;;;;5055639;28;20028;-70
2022/09/19 01:37:22;;;;;;;1.08;0.98;;;;;;;;;;5071902;28;20047;-72
2022/09/19 01:39:49;;;;;;;0.98;0.98;;;;;;;;;;5071388;28;20103;-72
2022/09/19 01:42:17;;;;;;;1.13;1.02;;;;;;;;;;5073132;28;20037;-72
2022/09/19 01:44:42;;;;;;;1.42;1.10;;;;;;;;;;5071563;28;20020;-72
2022/09/19 01:47:14;;;;;;;1.48;1.38;;;;;;;;;;5073316;28;20593;-73
2022/09/19 01:49:58;;;;;;;0.98;0.93;;;;;;;;;;5073554;28;20040;-73
2022/09/19 01:52:30;;;;;;;1.30;1.20;;;;;;;;;;5076044;28;20094;-73
2022/09/19 01:55:15;;;;;;;0.88;0.88;;;;;;;;;;5075098;28;20033;-73
2022/09/19 01:57:57;;;;;;;1.73;1.13;;;;;;;;;;5075531;28;20028;-72
2022/09/19 02:00:24;;;;;;;2.17;1.20;;;;;;;;;;5075248;28;20388;-72
2022/09/19 02:03:03;;;;;;;1.10;1.00;;;;;;;;;;5057871;28;20024;-72
2022/09/19 02:05:50;;;;;;;1.00;1.00;;;;;;;;;;5057288;28;20028;-72
2022/09/19 02:08:21;;;;;;;1.13;1.02;;;;;;;;;;5075102;28;20115;-73
2022/09/19 02:11:10;;;;;;;0.85;0.85;;;;;;;;;;5074965;28;20025;-73
2022/09/19 02:13:38;;;;;;;1.83;0.80;;;;;;;;;;5058400;28;20086;-73
2022/09/19 02:16:09;;;;;;;2.20;0.93;;;;;;;;;;5058251;28;20021;-73
2022/09/19 02:18:39;;;;;;;1.00;0.90;;;;;;;;;;5076418;28;20029;-73
2022/09/19 02:21:07;;;;;;;3.22;0.77;;;;;;;;;;5074267;28;20115;-73
2022/09/19 02:23:36;;;;;;;1.10;1.00;;;;;;;;;;5058334;28;20045;-72
2022/09/19 02:26:05;;;;;;;1.35;0.90;;;;;;;;;;5041690;28;20036;-72
2022/09/19 02:28:38;;;;;;;1.00;0.90;;;;;;;;;;5075109;28;20036;-72
2022/09/19 02:31:05;;;;;;;1.00;1.00;;;;;;;;;;5076153;28;20372;-72
2022/09/19 02:33:35;;;;;;;;;;;;;;;;;;5058694;28;20021;-72
2022/09/19 02:36:16;;;;;;;1.15;1.05;;;;;;;;;;5091639;28;19915;-73
2022/09/19 02:39:02;;;;;;;1.15;1.05;;;;;;;;;;5074132;28;20467;-72
2022/09/19 02:41:52;;;;;;;2.58;0.80;;;;;;;;;;5075871;28;20369;-72
2022/09/19 02:44:27;;;;;;;0.80;0.80;;;;;;;;;;5058080;28;20479;-72
2022/09/19 02:47:02;;;;;;;0.88;0.88;;;;;;;;;;5074080;28;20025;-72
2022/09/19 02:49:38;;;;;;;1.08;0.70;;;;;;;;;;5074358;28;20040;-72
2022/09/19 02:52:08;;;;;;;0.75;0.75;;;;;;;;;;5074641;28;20028;-72
2022/09/19 02:54:35;;;;;;;0.60;0.60;;;;;;;;;;5073912;28;20075;-72
2022/09/19 02:57:04;;;;;;;0.73;0.73;;;;;;;;;;5073863;28;20368;-72
2022/09/19 02:59:30;;;;;;;0.63;0.63;;;;;;;;;;5057560;28;20106;-72
2022/09/19 03:02:00;;;;;;;1.58;0.90;;;;;;;;;;5073324;28;20115;-72
2022/09/19 03:04:32;;;;;;;0.70;0.70;;;;;;;;;;5074339;28;20032;-73
2022/09/19 03:07:00;;;;;;;1.85;0.70;;;;;;;;;;5075453;28;20020;-73
2022/09/19 03:09:30;;;;;;;0.70;0.70;;;;;;;;;;5057657;28;20058;-73
2022/09/19 03:12:18;;;;;;;0.88;0.82;;;;;;;;;;5057220;28;20392;-73
2022/09/19 03:14:48;;;;;;;0.73;0.73;;;;;;;;;;5075323;28;20078;-72
2022/09/19 03:17:17;;;;;;;0.60;0.60;;;;;;;;;;5073868;28;20025;-72
2022/09/19 03:19:47;;;;;;;1.25;0.75;;;;;;;;;;5057253;28;20022;-73
2022/09/19 03:22:14;;;;;;;0.77;0.77;;;;;;;;;;5056262;28;20024;-73
2022/09/19 03:24:41;;;;;;;1.23;0.70;;;;;;;;;;5056372;28;20031;-73
2022/09/19 03:27:06;;;;;;;0.80;0.80;;;;;;;;;;5056866;28;20027;-72
2022/09/19 03:29:33;;;;;;;1.40;0.90;;;;;;;;;;5074604;28;20029;-72
2022/09/19 03:31:58;;;;;;;1.42;0.90;;;;;;;;;;5057008;28;20077;-72
2022/09/19 03:34:24;;;;;;;0.80;0.80;;;;;;;;;;5056541;28;20119;-72
2022/09/19 03:36:51;;;;;;;1.55;0.88;;;;;;;;;;5056566;28;20027;-72
2022/09/19 03:39:21;;;;;;;1.23;1.13;;;;;;;;;;5073237;28;20021;-72
2022/09/19 03:41:50;;;;;;;1.17;1.00;;;;;;;;;;5057136;28;20024;-72
2022/09/19 03:44:19;;;;;;;1.00;1.00;;;;;;;;;;5073474;28;20036;-72
2022/09/19 03:46:46;;;;;;;1.10;1.00;;;;;;;;;;5075470;28;20473;-72
2022/09/19 03:49:12;;;;;;;1.10;0.98;;;;;;;;;;5075191;28;20040;-72
2022/09/19 03:51:38;;;;;;;1.17;1.08;;;;;;;;;;5056391;28;20119;-72
2022/09/19 03:54:04;;;;;;;1.10;1.00;;;;;;;;;;5056411;28;20028;-72
2022/09/19 03:56:39;;;;;;;0.98;0.88;;;;;;;;;;5074486;28;20438;-72
2022/09/19 03:59:07;;;;;;;1.23;0.90;;;;;;;;;;5056321;28;20090;-72
2022/09/19 04:01:34;;;;;;;1.13;1.00;;;;;;;;;;5056245;28;20025;-72
2022/09/19 04:03:59;;;;;;;1.20;0.98;;;;;;;;;;5056207;28;20473;-72
2022/09/19 04:06:25;;;;;;;0.88;0.80;;;;;;;;;;5056579;28;20031;-72
2022/09/19 04:08:50;;;;;;;1.17;1.02;;;;;;;;;;5056450;28;20361;-72
2022/09/19 04:11:16;;;;;;;1.20;1.10;;;;;;;;;;5055855;28;20016;-72
2022/09/19 04:13:41;;;;;;;0.98;0.98;;;;;;;;;;5055628;28;20036;-72
2022/09/19 04:16:17;;;;;;;0.93;0.93;;;;;;;;;;5072506;28;20663;-72
2022/09/19 04:18:47;;;;;;;1.00;1.00;;;;;;;;;;5055664;28;20082;-72
2022/09/19 04:21:23;;;;;;;0.80;0.80;;;;;;;;;;5055593;28;20031;-72
2022/09/19 04:24:05;;;;;;;0.90;0.90;;;;;;;;;;5073458;28;20392;-72
2022/09/19 04:27:06;;;;;;;3.28;1.20;;;;;;;;;;5051265;28;20033;-72
2022/09/19 04:29:33;;;;;;;1.20;0.93;;;;;;;;;;5054568;28;20055;-71
2022/09/19 04:32:02;;;;;;;1.00;1.00;;;;;;;;;;5054674;28;20472;-72
2022/09/19 04:34:28;;;;;;;1.50;1.05;;;;;;;;;;5072249;28;20033;-72
2022/09/19 04:36:54;;;;;;;1.33;1.00;;;;;;;;;;5054130;28;20016;-72
2022/09/19 04:39:19;;;;;;;1.10;1.00;;;;;;;;;;5071999;28;20675;-70
2022/09/19 04:41:45;;;;;;;2.25;1.30;;;;;;;;;;5054008;28;20017;-69
2022/09/19 04:44:10;;;;;;;3.55;1.20;;;;;;;;;;5053803;28;20029;-70
2022/09/19 04:46:50;;;;;;;2.22;1.10;;;;;;;;;;5070205;28;20024;-69
2022/09/19 04:49:17;;;;;;;1.60;1.10;;;;;;;;;;5071888;28;20052;-70
2022/09/19 04:51:43;;;;;;;1.10;1.10;;;;;;;;;;5053800;28;20028;-70
2022/09/19 04:54:09;;;;;;;0.98;0.82;;;;;;;;;;5072001;28;20066;-68
2022/09/19 04:56:35;;;;;;;1.52;1.15;;;;;;;;;;5054309;28;20063;-68
2022/09/19 04:59:02;;;;;;;2.35;1.13;;;;;;;;;;5054184;28;20380;-70
2022/09/19 05:01:30;;;;;;;1.33;1.10;;;;;;;;;;5053123;28;20035;-69
2022/09/19 05:03:57;;;;;;;1.80;1.13;;;;;;;;;;5054371;28;20549;-69
2022/09/19 05:06:22;;;;;;;4.13;1.25;;;;;;;;;;5071077;28;20025;-69
2022/09/19 05:08:50;;;;;;;1.58;1.00;;;;;;;;;;5037715;28;20380;-68
2022/09/19 05:11:27;;;;;;;1.20;1.10;;;;;;;;;;5054387;28;20151;-69
2022/09/19 05:13:53;;;;;;;2.03;1.40;;;;;;;;;;5054203;28;20472;-69
2022/09/19 05:16:21;;;;;;;1.40;1.30;;;;;;;;;;5054444;28;20013;-69
2022/09/19 05:18:55;;;;;;;1.00;1.00;;;;;;;;;;5054243;28;20409;-69
2022/09/19 05:21:21;;;;;;;1.17;1.17;;;;;;;;;;5053956;28;20373;-69
2022/09/19 05:23:49;;;;;;;3.58;1.40;;;;;;;;;;5070982;28;20070;-69
2022/09/19 05:26:16;;;;;;;1.23;1.23;;;;;;;;;;5057338;28;20040;-68
2022/09/19 05:28:45;;;;;;;1.35;1.27;;;;;;;;;;5058335;28;20054;-72
2022/09/19 05:31:12;;;;;;;1.27;1.17;;;;;;;;;;5058218;28;20032;-72
2022/09/19 05:33:42;;;;;;;1.67;1.20;;;;;;;;;;5058188;28;20101;-72
2022/09/19 05:36:12;;;;;;;3.83;1.30;;;;;;;;;;5057968;28;20392;-72
2022/09/19 05:38:57;;;;;;;1.20;1.10;;;;;;;;;;5076202;28;20626;-72
2022/09/19 05:41:46;;;;;;;2.10;1.00;;;;;;;;;;5074472;28;20476;-72
2022/09/19 05:44:16;;;;;;;1.33;1.17;;;;;;;;;;5074838;28;20025;-72
2022/09/19 05:46:45;;;;;;;1.58;1.20;;;;;;;;;;5058063;28;20024;-72
2022/09/19 05:49:11;;;;;;;2.17;1.25;;;;;;;;;;5075689;28;20052;-72
2022/09/19 05:51:36;;;;;;;1.27;1.20;;;;;;;;;;5057995;28;20032;-72
2022/09/19 05:54:02;;;;;;;2.10;1.40;;;;;;;;;;5057650;28;20062;-72
2022/09/19 05:56:41;;;;;;;2.03;1.35;;;;;;;;;;5075620;28;20021;-72
2022/09/19 05:59:09;;;;;;;1.60;1.50;;;;;;;;;;5073885;28;20033;-72
2022/09/19 06:01:37;;;;;;;2.85;1.40;;;;;;;;;;5057762;28;20021;-72
2022/09/19 06:04:07;;;;;;;2.00;1.90;;;;;;;;;;5057494;28;20116;-72
2022/09/19 06:06:36;;;;;;;;;;;;;;;;;;5074532;28;20024;-72
2022/09/19 06:09:03;;;;;;;1.48;1.38;;;;;;;;;;5090842;28;20332;-72
2022/09/19 06:11:33;;;;;;;2.03;1.77;;;;;;;;;;5057308;28;20052;-72
2022/09/19 06:14:14;;;;;;;1.75;1.60;;;;;;;;;;5075045;28;20064;-72
2022/09/19 06:16:44;;;;;;;1.80;1.65;;;;;;;;;;5056846;28;20550;-72
2022/09/19 06:19:19;;;;;;;1.35;1.25;;;;;;;;;;5074725;28;20517;-72
2022/09/19 06:21:51;;;;;;;1.77;1.67;;;;;;;;;;5056725;28;20024;-72
2022/09/19 06:24:17;;;;;;;1.83;1.73;;;;;;;;;;5056944;28;20070;-72
2022/09/19 06:26:42;;;;;;;4.18;1.60;;;;;;;;;;5056848;28;20024;-72
2022/09/19 06:29:08;;;;;;;1.73;1.60;;;;;;;;;;5056972;28;20055;-72
2022/09/19 06:31:35;;;;;;;2.97;1.73;;;;;;;;;;5056871;28;20020;-72
2022/09/19 06:34:07;;;;;;;2.25;1.58;;;;;;;;;;5056755;28;20028;-72
2022/09/19 06:36:37;;;;;;;3.40;1.58;;;;;;;;;;5056457;28;20066;-72
2022/09/19 06:39:06;;;;;;;1.73;1.48;;;;;;;;;;5056705;28;20028;-72
2022/09/19 06:41:47;;;;;;;1.52;1.42;;;;;;;;;;5060188;28;20016;-72
2022/09/19 06:44:29;;;;;;;1.42;1.33;;;;;;;;;;5059850;28;20495;-72
2022/09/19 06:47:17;;;;;;;1.88;1.50;;;;;;;;;;5074618;28;20044;-71
2022/09/19 06:49:52;;;;;;;1.88;1.70;;;;;;;;;;5075127;28;20111;-71
2022/09/19 06:52:46;;;;;;;1.77;1.67;;;;;;;;;;5051843;28;20048;-71
2022/09/19 06:55:12;;;;;;;2.38;1.88;;;;;;;;;;5058276;28;20384;-72
2022/09/19 06:57:40;;;;;;;2.42;1.73;;;;;;;;;;5056175;22;20106;-67
2022/09/19 07:00:07;;;;;;;1.75;1.65;;;;;;;;;;5053365;28;20025;-68
2022/09/19 07:02:33;;;;;;;2.08;1.70;;;;;;;;;;5054028;28;20476;-67
2022/09/19 07:04:59;;;;;;;2.03;1.48;;;;;;;;;;5053962;28;20032;-68
2022/09/19 07:07:33;;;;;;;1.52;1.42;;;;;;;;;;5055196;28;20468;-67
2022/09/19 07:09:59;;;;;;;4.05;1.90;;;;;;;;;;5054731;28;20033;-67
2022/09/19 07:12:24;;;;;;;1.98;1.75;;;;;;;;;;5053871;28;20477;-67
2022/09/19 07:14:56;;;;;;;2.10;1.90;;;;;;;;;;5054006;28;20040;-67
2022/09/19 07:17:22;;;;;;;2.90;1.52;;;;;;;;;;5053704;28;20587;-67
2022/09/19 07:19:50;;;;;;;1.83;1.52;;;;;;;;;;5053974;28;20548;-67
2022/09/19 07:22:25;;;;;;;1.95;1.30;;;;;;;;;;5055217;28;20039;-67
2022/09/19 07:25:08;;;;;;;1.50;1.40;;;;;;;;;;5055397;28;20044;-67
2022/09/19 07:27:42;;;;;;;2.00;1.35;;;;;;;;;;5054721;28;20037;-67
2022/09/19 07:30:08;;;;;;;2.00;1.77;;;;;;;;;;5053528;28;20021;-67
2022/09/19 07:32:34;;;;;;;1.83;1.45;;;;;;;;;;5053472;28;20021;-67
2022/09/19 07:34:59;;;;;;;2.33;1.45;;;;;;;;;;5053357;28;20029;-67
2022/09/19 07:37:24;;;;;;;1.58;1.48;;;;;;;;;;5054671;28;20052;-67
2022/09/19 07:39:59;;;;;;;2.38;1.63;;;;;;;;;;5054527;28;20100;-67
2022/09/19 07:42:37;;;;;;;1.60;1.50;;;;;;;;;;5052857;28;20032;-67
2022/09/19 07:45:29;;;;;;;2.15;1.67;;;;;;;;;;5053135;28;20527;-68
2022/09/19 07:48:01;;;;;;;2.15;1.52;;;;;;;;;;5052183;28;20029;-69
2022/09/19 07:50:36;;;;;;;1.90;1.80;;;;;;;;;;5053096;28;20025;-70
2022/09/19 07:53:14;;;;;;;2.40;1.58;;;;;;;;;;5052651;28;20036;-70
2022/09/19 07:55:43;;;;;;;1.85;1.20;;;;;;;;;;5052759;28;20029;-70
2022/09/19 07:58:10;;;;;;;1.27;1.00;;;;;;;;;;5052176;28;20044;-70
2022/09/19 08:00:41;;;;;;;1.48;1.33;;;;;;;;;;5053186;28;20377;-70
2022/09/19 08:03:12;;;;;;;2.42;1.17;;;;;;;;;;5053113;28;20052;-73
2022/09/19 08:05:39;;;;;;;1.77;1.13;;;;;;;;;;5035731;28;20056;-72
2022/09/19 08:08:05;;;;;;;2.05;1.15;;;;;;;;;;5053855;28;20267;-72
2022/09/19 08:10:32;;;;;;;1.50;1.23;;;;;;;;;;5053159;28;20111;-72
2022/09/19 08:13:03;;;;;;;1.40;1.30;;;;;;;;;;5052349;28;20020;-72
2022/09/19 08:15:30;;;;;;;1.15;1.08;;;;;;;;;;5051922;28;20446;-72
2022/09/19 08:18:00;;;;;;;2.03;1.27;;;;;;;;;;5051775;28;20017;-73
2022/09/19 08:20:25;;;;;;;;;;;;;;;;;;5053057;28;20029;-73
2022/09/19 08:22:56;;;;;;;1.45;1.35;;;;;;;;;;5053810;28;19954;-74
2022/09/19 08:25:23;;;;;;;1.80;1.10;;;;;;;;;;5051671;28;20059;-74
2022/09/19 08:27:51;;;;;;;1.70;1.08;;;;;;;;;;5051673;28;20021;-73
2022/09/19 08:30:18;;;;;;;1.35;1.25;;;;;;;;;;5052032;28;20112;-74
2022/09/19 08:32:44;;;;;;;1.38;1.27;;;;;;;;;;5052370;28;20481;-74
2022/09/19 08:35:10;;;;;;;1.98;1.35;;;;;;;;;;5052355;28;20090;-74
2022/09/19 08:37:36;;;;;;;1.27;1.10;;;;;;;;;;5052550;28;20017;-74
2022/09/19 08:40:18;;;;;;;2.08;1.10;;;;;;;;;;5052304;28;20032;-74
2022/09/19 08:42:52;;;;;;;0.90;0.85;;;;;;;;;;5052335;28;20025;-74
2022/09/19 08:45:27;;;;;;;1.05;0.95;;;;;;;;;;5052166;28;20120;-74
2022/09/19 08:47:54;;;;;;;1.40;1.30;;;;;;;;;;5052234;28;20082;-74
2022/09/19 08:50:25;;;;;;;1.23;1.00;;;;;;;;;;5051818;28;20021;-74
2022/09/19 08:52:54;;;;;;;2.97;1.00;;;;;;;;;;5052321;28;20020;-73
2022/09/19 08:55:23;;;;;;;;;;;;;;;;;;5051956;28;20044;-74
2022/09/19 08:57:59;;;;;;;0.80;0.80;;;;;;;;;;5035852;28;20348;-74
2022/09/19 09:00:37;;;;;;;1.05;0.85;;;;;;;;;;5056279;28;20480;-74
2022/09/19 09:03:05;;;;;;;2.17;0.80;;;;;;;;;;5056283;28;20167;-75
2022/09/19 09:05:40;;;;;;;1.65;0.90;;;;;;;;;;5056401;28;20024;-74
2022/09/19 09:08:06;;;;;;;1.33;1.00;;;;;;;;;;5055891;28;20433;-75
2022/09/19 09:10:45;;;;;;;0.75;0.75;;;;;;;;;;5056159;28;20151;-75
2022/09/19 09:13:10;;;;;;;1.25;1.17;;;;;;;;;;5056006;28;20025;-75
2022/09/19 09:15:39;;;;;;;1.67;0.77;;;;;;;;;;5055980;28;20021;-75
2022/09/19 09:18:18;;;;;;;0.60;0.60;;;;;;;;;;5055953;28;20094;-75
2022/09/19 09:20:46;;;;;;;0.85;0.80;;;;;;;;;;5055986;28;20473;-75
2022/09/19 09:23:21;;;;;;;0.75;0.75;;;;;;;;;;5055852;28;20484;-75
2022/09/19 09:26:14;;;;;;;0.57;0.57;;;;;;;;;;5056851;28;20033;-75
2022/09/19 09:28:51;;;;;;;0.80;0.80;;;;;;;;;;5057869;28;20393;-74
2022/09/19 09:31:40;;;;;;;1.27;0.70;;;;;;;;;;5058996;28;20021;-75
2022/09/19 09:34:24;;;;;;;0.70;0.57;;;;;;;;;;5056654;28;20412;-75
2022/09/19 09:36:59;;;;;;;0.85;0.60;;;;;;;;;;5054871;28;20029;-75
2022/09/19 09:40:08;;;;;;;2.00;0.70;;;;;;;;;;5054613;28;20029;-75
2022/09/19 09:42:43;;;;;;;0.70;0.70;;;;;;;;;;5054527;28;20025;-75
2022/09/19 09:45:27;;;;;;;0.60;0.60;;;;;;;;;;5054135;28;20116;-75
2022/09/19 09:48:05;;;;;;;0.52;0.40;;;;;;;;;;5054186;28;20052;-75
2022/09/19 09:50:36;;;;;;;0.60;0.60;;;;;;;;;;5054034;28;20556;-75
2022/09/19 09:53:38;;;;;;;1.08;0.60;;;;;;;;;;5054342;28;20040;-75
2022/09/19 09:56:16;;;;;;;0.40;0.40;;;;;;;;;;4997053;28;20061;-75
2022/09/19 09:58:58;;;;;;;0.50;0.50;;;;;;;;;;5049505;28;20051;-75
2022/09/19 10:04:21;;;;;;;0.95;0.70;;;;;;;;;;5054341;28;20029;-75
2022/09/19 10:06:55;;;;;;;1.30;0.70;;;;;;;;;;5054058;28;20473;-75
2022/09/19 10:09:33;;;;;;;1.23;0.60;;;;;;;;;;5053977;28;20071;-75
2022/09/19 10:12:01;;;;;;;0.90;0.90;;;;;;;;;;5053217;28;20025;-75
2022/09/19 10:14:29;;;;;;;2.25;1.10;;;;;;;;;;5054214;28;20424;-75
2022/09/19 10:17:09;;;;;;;1.27;1.17;;;;;;;;;;5053814;28;20029;-75
2022/09/19 10:19:48;;;;;;;0.80;0.80;;;;;;;;;;5054017;28;20021;-75
2022/09/19 10:22:14;;;;;;;0.85;0.85;;;;;;;;;;5053375;28;20495;-75
2022/09/19 10:24:45;;;;;;;0.70;0.70;;;;;;;;;;5053624;28;20152;-75
2022/09/19 10:27:24;;;;;;;1.95;1.30;;;;;;;;;;5053930;28;20488;-75
2022/09/19 10:29:53;;;;;;;0.95;0.95;;;;;;;;;;5053531;28;20094;-75
2022/09/19 10:32:22;;;;;;;1.15;1.05;;;;;;;;;;5053604;28;20384;-75
2022/09/19 10:35:27;;;;;;;0.50;0.50;;;;;;;;;;5043801;28;20094;-75
2022/09/19 10:38:00;;;;;;;1.15;0.80;;;;;;;;;;5053537;28;20029;-75
2022/09/19 10:40:28;;;;;;;2.65;0.85;;;;;;;;;;5053338;28;20484;-75
2022/09/19 10:42:54;;;;;;;1.45;0.70;;;;;;;;;;5053497;28;20029;-75
2022/09/19 10:45:36;;;;;;;0.77;0.77;;;;;;;;;;5053262;28;20033;-75
2022/09/19 10:48:05;;;;;;;2.05;1.00;;;;;;;;;;5052903;28;20039;-75
2022/09/19 10:50:31;;;;;;;1.50;0.80;;;;;;;;;;5053232;28;20037;-75
2022/09/19 10:53:06;;;;;;;0.85;0.85;;;;;;;;;;5054492;28;20028;-75
2022/09/19 10:55:36;;;;;;;0.82;0.82;;;;;;;;;;5053036;28;20021;-75
2022/09/19 10:58:12;;;;;;;0.80;0.77;;;;;;;;;;5052934;28;20044;-74
2022/09/19 11:00:49;;;;;;;0.68;0.68;;;;;;;;;;5053988;28;20032;-75
2022/09/19 11:03:23;;;;;;;1.00;0.60;;;;;;;;;;5053715;28;20071;-77
2022/09/19 11:06:13;;;;;;;0.55;0.55;;;;;;;;;;5054478;28;20021;-75
2022/09/19 11:08:47;;;;;;;1.47;0.80;;;;;;;;;;5037560;28;20476;-75
2022/09/19 11:11:37;;;;;;;0.60;0.60;;;;;;;;;;5046535;28;20120;-75
2022/09/19 11:14:18;;;;;;;1.98;0.82;;;;;;;;;;5053731;28;20416;-75
2022/09/19 11:16:49;;;;;;;0.80;0.80;;;;;;;;;;5053379;28;20078;-75
2022/09/19 11:19:26;;;;;;;0.40;0.40;;;;;;;;;;5053378;28;20052;-75
2022/09/19 11:21:52;;;;;;;0.88;0.55;;;;;;;;;;5052826;28;20078;-75
2022/09/19 11:24:18;;;;;;;0.68;0.68;;;;;;;;;;5053063;28;20024;-75
2022/09/19 11:26:59;;;;;;;0.70;0.70;;;;;;;;;;5054527;28;20033;-75
2022/09/19 11:29:25;;;;;;;0.68;0.68;;;;;;;;;;5052886;28;20029;-77
2022/09/19 11:32:03;;;;;;;0.77;0.77;;;;;;;;;;5036876;28;20028;-75
2022/09/19 11:34:39;;;;;;;0.75;0.63;;;;;;;;;;5051765;28;20492;-74
2022/09/19 11:37:32;;;;;;;0.80;0.70;;;;;;;;;;5053279;28;20426;-74
2022/09/19 11:40:15;;;;;;;1.00;0.90;;;;;;;;;;5053176;28;20029;-73
2022/09/19 11:42:59;;;;;;;1.40;0.57;;;;;;;;;;5049719;28;20029;-75
2022/09/19 11:45:41;;;;;;;0.73;0.73;;;;;;;;;;5062202;28;20021;-73
2022/09/19 11:48:27;;;;;;;0.82;0.60;;;;;;;;;;5061812;28;20083;-80
2022/09/19 11:51:02;;;;;;;0.68;0.68;;;;;;;;;;5052391;28;20033;-74
2022/09/19 11:53:45;;;;;;;2.03;0.68;;;;;;;;;;5052616;28;20379;-75
2022/09/19 11:56:36;;;;;;;1.05;0.95;;;;;;;;;;5053650;28;20044;-75
2022/09/19 11:59:24;;;;;;;1.10;1.00;;;;;;;;;;5052823;28;20387;-73
2022/09/19 12:02:09;;;;;;;0.80;0.80;;;;;;;;;;5065228;28;20468;-74
2022/09/19 12:04:55;;;;;;;0.98;0.75;;;;;;;;;;5052002;28;20499;-72
2022/09/19 12:07:42;;;;;;;1.13;1.13;;;;;;;;;;5080649;28;20028;-72
2022/09/19 12:10:22;;;;;;;1.15;1.08;;;;;;;;;;5064812;28;20357;-69
2022/09/19 12:12:53;;;;;;;0.90;0.90;;;;;;;;;;5062572;28;20032;-71
2022/09/19 12:15:29;;;;;;;1.70;0.82;;;;;;;;;;5079295;28;20036;-71
2022/09/19 12:17:59;;;;;;;1.92;1.20;;;;;;;;;;5044288;28;20028;-72
2022/09/19 12:20:32;;;;;;;1.90;0.93;;;;;;;;;;5075244;28;20025;-71
2022/09/19 12:24:52;;;;;;;1.15;0.80;;;;;;;;;;5053326;28;20039;-72
2022/09/19 12:25:48;;;;;;;1.02;0.93;;;;;;;;;;5053219;28;20075;-71
2022/09/19 12:28:15;;;;;;;2.00;1.38;;;;;;;;;;5078696;28;20031;-74
2022/09/19 12:30:46;;;;;;;1.20;1.10;;;;;;;;;;5056895;28;20020;-72
2022/09/19 12:33:24;;;;;;;1.05;0.95;;;;;;;;;;5054383;28;20031;-71
2022/09/19 12:36:07;;;;;;;0.90;0.90;;;;;;;;;;5053574;28;20039;-77
2022/09/19 12:38:52;;;;;;;2.80;2.30;;;;;;;;;;5052377;28;20107;-73
2022/09/19 12:41:28;;;;;;;1.55;1.45;;;;;;;;;;5053509;28;20028;-74
2022/09/19 12:44:09;;;;;;;0.98;0.93;;;;;;;;;;5080620;28;20522;-73
2022/09/19 12:46:38;;;;;;;0.93;0.93;;;;;;;;;;5081030;28;20495;-74
2022/09/19 12:49:20;;;;;;;1.00;0.90;;;;;;;;;;5054216;28;20532;-71
2022/09/19 12:51:55;;;;;;;0.90;0.90;;;;;;;;;;5071034;28;20400;-73
2022/09/19 12:54:58;;;;;;;0.90;0.90;;;;;;;;;;5054563;28;20024;-73
2022/09/19 12:57:31;;;;;;;1.00;0.90;;;;;;;;;;4991838;28;20049;-73
2022/09/19 12:59:56;;;;;;;1.00;1.00;;;;;;;;;;5061111;28;20111;-73
2022/09/19 13:02:28;;;;;;;1.00;1.00;;;;;;;;;;5073714;28;20043;-73
2022/09/19 13:04:57;;;;;;;1.17;1.17;;;;;;;;;;5073123;28;20036;-73
2022/09/19 13:07:30;;;;;;;2.22;1.20;;;;;;;;;;5073642;28;20039;-73
2022/09/19 13:10:05;;;;;;;1.27;1.17;;;;;;;;;;5073054;28;20028;-73
2022/09/19 13:12:33;;;;;;;0.95;0.95;;;;;;;;;;5055407;28;20029;-73
2022/09/19 13:15:02;;;;;;;3.25;0.90;;;;;;;;;;5073533;28;20020;-73
2022/09/19 13:25:50;;;;;;;15.25;1.90;;;;;;;;;;5088653;28;20048;-73
2022/09/19 13:28:17;;;;;;;1.67;0.80;;;;;;;;;;5055034;28;20020;-73
2022/09/19 13:30:50;;;;;;;2.45;1.15;;;;;;;;;;5089085;28;20127;-73
2022/09/19 13:33:27;;;;;;;1.38;1.27;;;;;;;;;;5055413;28;20044;-73
2022/09/19 13:35:53;;;;;;;2.35;1.40;;;;;;;;;;5089273;28;20028;-73
2022/09/19 13:38:25;;;;;;;1.58;1.48;;;;;;;;;;5055197;28;20028;-73
2022/09/19 13:41:03;;;;;;;1.60;1.15;;;;;;;;;;5073455;28;20032;-73
2022/09/19 13:43:48;;;;;;;1.10;1.00;;;;;;;;;;5073353;28;20368;-72
2022/09/19 13:46:37;;;;;;;2.95;1.40;;;;;;;;;;5074313;28;20533;-72
2022/09/19 13:49:31;;;;;;;1.40;1.00;;;;;;;;;;5038914;28;20044;-73
2022/09/19 13:51:59;;;;;;;2.53;1.20;;;;;;;;;;5077071;28;20037;-79
2022/09/19 13:54:24;;;;;;;2.00;0.90;;;;;;;;;;5059769;28;20025;-80
2022/09/19 13:57:02;;;;;;;10.02;1.90;;;;;;;;;;5076914;28;20388;-80
2022/09/19 13:59:31;;;;;;;2.45;1.10;;;;;;;;;;5093039;28;20056;-79
2022/09/19 14:02:16;;;;;;;1.15;1.13;;;;;;;;;;5076887;28;20025;-80
2022/09/19 14:05:03;;;;;;;17.17;2.50;;;;;;;;;;5076295;28;20488;-80
2022/09/19 14:07:43;;;;;;;1.63;1.30;;;;;;;;;;5092876;28;20507;-79
2022/09/19 14:10:12;;;;;;;3.42;1.23;;;;;;;;;;5058760;28;20051;-80
2022/09/19 14:12:45;;;;;;;1.70;1.10;;;;;;;;;;5077313;28;20024;-80
2022/09/19 14:15:27;;;;;;;1.40;0.80;;;;;;;;;;5076527;28;20037;-80
2022/09/19 14:18:08;;;;;;;8.60;1.65;;;;;;;;;;5076679;28;20032;-80
2022/09/19 14:20:56;;;;;;;2.28;0.90;;;;;;;;;;5076190;28;20029;-80
2022/09/19 14:23:25;;;;;;;0.70;0.70;;;;;;;;;;5077355;28;20392;-80
2022/09/19 14:26:14;;;;;;;3.35;1.02;;;;;;;;;;5076812;28;20028;-80
2022/09/19 14:28:58;;;;;;;2.78;1.40;;;;;;;;;;5022630;28;20045;-80
2022/09/19 14:31:42;;;;;;;2.63;1.10;;;;;;;;;;5076541;28;20040;-80
2022/09/19 14:34:22;;;;;;;9.13;1.65;;;;;;;;;;5076366;28;20487;-79
2022/09/19 14:37:07;;;;;;;3.42;1.15;;;;;;;;;;5076174;28;20134;-80
2022/09/19 14:39:51;;;;;;;8.40;1.27;;;;;;;;;;5077294;28;20025;-80
2022/09/19 14:42:16;;;;;;;1.08;0.98;;;;;;;;;;5092195;28;20465;-80
2022/09/19 14:44:53;;;;;;;6.80;1.65;;;;;;;;;;5058160;28;20052;-72
2022/09/19 14:47:35;;;;;;;8.10;1.85;;;;;;;;;;5075743;28;20366;-73
2022/09/19 14:50:13;;;;;;;1.30;1.05;;;;;;;;;;5057653;28;20037;-72
2022/09/19 14:52:42;;;;;;;1.30;1.02;;;;;;;;;;5075514;28;20086;-73
2022/09/19 14:55:13;;;;;;;1.10;0.95;;;;;;;;;;5057540;28;20066;-72
2022/09/19 14:57:38;;;;;;;;;;;;;;;;;;5091087;28;20040;-74
2022/09/19 15:00:37;;;;;;;1.43;1.07;;;;;;;;;;5075353;28;20268;-74
2022/09/19 15:03:10;;;;;;;0.93;0.90;;;;;;;;;;5025549;28;20381;-74
2022/09/19 15:05:38;;;;;;;7.35;1.45;;;;;;;;;;5090856;28;20392;-74
2022/09/19 15:08:15;;;;;;;3.47;1.40;;;;;;;;;;5075097;28;20017;-74
2022/09/19 15:10:41;;;;;;;22.17;4.07;;;;;;;;;;5057261;28;20074;-74
2022/09/19 15:13:15;;;;;;;21.38;3.15;;;;;;;;;;5040506;28;20056;-74
2022/09/19 15:15:45;;;;;;;3.15;1.60;;;;;;;;;;5057673;28;20028;-74
2022/09/19 15:18:20;;;;;;;10.07;2.70;;;;;;;;;;5093764;28;20020;-74
2022/09/19 15:20:48;;;;;;;1.75;1.27;;;;;;;;;;5077867;28;20361;-74
2022/09/19 15:23:14;;;;;;;181.35;19.73;;;;;;;;;;5075029;28;20047;-74
2022/09/19 15:25:41;;;;;;;70.32;13.48;;;;;;;;;;5074853;28;20492;-74
2022/09/19 15:28:23;;;;;;;5.72;2.67;;;;;;;;;;5075065;28;20017;-74
2022/09/19 15:30:49;;;;;;;4.40;3.05;;;;;;;;;;5074755;28;20063;-74
2022/09/19 15:33:14;;;;;;;3.85;2.90;;;;;;;;;;5074670;28;20457;-74